Time;durP1;ratioP1;P1;durP2;ratioP2;P2;SDS_P1;SDS_P2;PMS_P1;PMS_P2;Temp;Humidity;BMP_temperature;BMP_pressure;BME280_temperature;BME280_humidity;BME280_pressure;Samples;Min_cycle;Max_cycle;Signal;HPM_P1;HPM_P2
2022/04/06 00:02:06;;;;;;;14.83;8.20;;;12.40;77.60;;;15.11;58.28;99999.59;5053816;28;20553;-59
2022/04/06 00:04:34;;;;;;;16.07;7.63;;;12.30;77.80;;;15.10;58.54;99998.78;5053632;28;20256;-57
2022/04/06 00:07:01;;;;;;;10.20;7.00;;;12.30;78.00;;;15.10;58.62;99998.78;5053100;28;20674;-59
2022/04/06 00:09:29;;;;;;;13.00;7.37;;;12.30;78.20;;;15.09;58.39;100001.66;5053338;28;20186;-57
2022/04/06 00:11:56;;;;;;;10.20;6.87;;;12.30;78.20;;;15.08;58.34;100010.63;5053174;28;20186;-55
2022/04/06 00:14:24;;;;;;;9.70;6.77;;;12.30;78.20;;;15.08;58.60;100000.84;5051829;28;20193;-58
2022/04/06 00:16:51;;;;;;;10.43;6.20;;;12.30;78.30;;;15.06;58.57;99994.16;5052991;28;20209;-58
2022/04/06 00:19:20;;;;;;;11.30;6.37;;;12.20;78.30;;;15.06;58.56;99997.63;5053069;28;20217;-58
2022/04/06 00:21:48;;;;;;;8.90;5.63;;;12.20;78.20;;;15.06;58.74;100002.09;5053266;28;20213;-59
2022/04/06 00:24:16;;;;;;;9.93;6.90;;;12.20;78.10;;;15.07;58.52;99987.81;5053921;28;20189;-55
2022/04/06 00:26:43;;;;;;;7.53;6.20;;;12.20;78.00;;;15.07;58.30;100001.06;5052944;28;20229;-55
2022/04/06 00:29:10;;;;;;;9.17;7.00;;;12.20;77.80;;;15.06;58.21;100004.75;5053129;28;20194;-56
2022/04/06 00:31:37;;;;;;;8.43;6.30;;;12.20;77.80;;;15.05;58.26;99987.25;5051318;28;20190;-59
2022/04/06 00:34:05;;;;;;;7.23;6.10;;;12.20;77.70;;;15.03;57.92;99990.09;5053147;28;20204;-57
2022/04/06 00:36:34;;;;;;;7.87;6.10;;;12.20;77.60;;;15.05;58.06;99990.69;5053039;28;20190;-55
2022/04/06 00:39:01;;;;;;;14.60;6.97;;;12.20;77.60;;;15.05;57.94;99979.28;5053073;28;20202;-59
2022/04/06 00:41:29;;;;;;;9.93;6.93;;;12.20;77.40;;;15.05;58.06;99982.72;5052974;28;20213;-56
2022/04/06 00:44:11;;;;;;;8.23;5.87;;;12.20;77.40;;;15.02;57.93;99990.31;5053235;28;20642;-58
2022/04/06 00:46:39;;;;;;;8.13;6.17;;;12.20;77.40;;;15.03;58.09;99983.97;5052722;28;20217;-58
2022/04/06 00:49:11;;;;;;;12.77;7.33;;;12.20;77.30;;;15.04;57.92;99989.06;5051400;28;20198;-59
2022/04/06 00:51:43;;;;;;;9.40;6.07;;;12.20;77.30;;;15.03;57.89;99987.44;5052932;28;20194;-57
2022/04/06 00:54:13;;;;;;;7.90;6.77;;;12.20;77.40;;;15.02;57.83;99988.50;5053533;28;20196;-58
2022/04/06 00:56:43;;;;;;;10.17;6.77;;;12.10;77.50;;;15.01;58.06;99978.09;5054386;28;20220;-58
2022/04/06 00:59:11;;;;;;;7.33;6.63;;;12.20;77.70;;;14.96;58.06;99977.94;5054421;28;20639;-58
2022/04/06 01:01:39;;;;;;;6.80;6.10;;;12.10;77.60;;;14.93;58.17;99972.06;5053910;28;20210;-59
2022/04/06 01:04:06;;;;;;;13.27;7.23;;;12.20;77.70;;;14.91;58.20;99975.97;5053604;28;20251;-56
2022/04/06 01:06:34;;;;;;;7.73;6.67;;;12.10;77.80;;;14.87;58.29;99972.97;5037617;28;20190;-57
2022/04/06 01:09:03;;;;;;;7.43;6.37;;;12.10;77.80;;;14.84;58.50;99973.41;5037774;28;20194;-58
2022/04/06 01:11:31;;;;;;;11.70;6.93;;;12.10;78.00;;;14.84;58.64;99973.41;5037892;28;20182;-56
2022/04/06 01:13:59;;;;;;;9.33;7.00;;;12.10;78.00;;;14.84;58.44;99969.94;5038718;28;20198;-56
2022/04/06 01:16:26;;;;;;;6.97;6.03;;;12.00;78.20;;;14.84;58.56;99973.41;5037960;28;20186;-57
2022/04/06 01:18:53;;;;;;;10.13;6.50;;;12.10;78.20;;;14.83;58.61;99966.47;5037967;28;20199;-58
2022/04/06 01:21:21;;;;;;;9.83;7.50;;;12.00;78.40;;;14.82;58.49;99959.56;5040640;28;20209;-56
2022/04/06 01:23:50;;;;;;;12.73;7.83;;;12.00;78.50;;;14.83;58.66;99961.16;5054324;28;20194;-56
2022/04/06 01:26:17;;;;;;;14.80;8.77;;;12.00;78.50;;;14.83;58.63;99966.47;5041659;28;20220;-57
2022/04/06 01:28:44;;;;;;;12.67;8.40;;;12.00;78.60;;;14.83;58.78;99966.47;5042240;28;20632;-57
2022/04/06 01:31:12;;;;;;;12.07;8.07;;;12.00;78.40;;;14.84;58.84;99962.78;5056299;28;20189;-56
2022/04/06 01:33:39;;;;;;;12.33;8.23;;;12.00;78.60;;;14.87;58.63;99966.84;5056741;28;20190;-57
2022/04/06 01:36:07;;;;;;;10.90;8.77;;;12.00;78.60;;;14.88;58.70;99958.66;5055716;28;20554;-57
2022/04/06 01:38:35;;;;;;;11.07;8.40;;;12.00;78.60;;;14.90;58.50;99963.75;5053731;28;20209;-58
2022/04/06 01:41:04;;;;;;;10.67;8.13;;;12.00;78.60;;;14.89;58.39;99957.66;5055863;28;20220;-57
2022/04/06 01:43:31;;;;;;;12.57;9.40;;;12.00;78.60;;;14.92;58.57;99953.75;5055865;28;20198;-57
2022/04/06 01:45:59;;;;;;;12.90;9.53;;;12.00;78.70;;;14.94;58.58;99954.31;5055851;28;20218;-58
2022/04/06 01:48:26;;;;;;;12.73;9.50;;;12.00;78.80;;;14.95;58.55;99952.50;5055202;28;20256;-58
2022/04/06 01:53:39;;;;;;;11.63;8.87;;;12.00;78.70;;;14.91;58.55;99952.94;5055625;28;20535;-57
2022/04/06 01:56:09;;;;;;;14.03;9.30;;;12.00;78.70;;;14.91;58.57;99942.34;5054012;28;20186;-56
2022/04/06 01:58:36;;;;;;;10.97;8.93;;;12.00;78.60;;;14.93;58.35;99943.97;5055110;28;20218;-59
2022/04/06 02:01:04;;;;;;;16.13;10.53;;;12.00;78.60;;;14.93;58.38;99948.22;5055590;28;20306;-59
2022/04/06 02:03:31;;;;;;;11.50;9.73;;;12.10;78.70;;;14.93;58.68;99940.25;5055420;28;20677;-57
2022/04/06 02:05:58;;;;;;;14.17;10.23;;;12.10;78.50;;;14.95;58.59;99934.75;5055302;28;20194;-59
2022/04/06 02:08:26;;;;;;;14.37;10.43;;;12.10;78.50;;;14.97;58.54;99929.22;5053611;28;20573;-56
2022/04/06 02:10:53;;;;;;;13.07;9.23;;;12.10;78.50;;;14.99;58.33;99932.47;5055732;28;20539;-58
2022/04/06 02:13:22;;;;;;;14.57;10.23;;;12.10;78.40;;;14.99;58.45;99930.63;5038725;28;20201;-57
2022/04/06 02:15:50;;;;;;;16.33;11.90;;;12.10;78.30;;;14.95;58.48;99926.81;5034062;28;20246;-57
2022/04/06 02:18:17;;;;;;;17.03;11.37;;;12.10;78.00;;;14.93;58.71;99928.06;5035065;28;20214;-57
2022/04/06 02:20:44;;;;;;;12.13;10.83;;;12.20;78.00;;;14.96;58.56;99917.00;5034019;28;20322;-58
2022/04/06 02:23:11;;;;;;;18.63;13.23;;;12.10;78.00;;;14.99;58.29;99921.84;5035685;28;20206;-57
2022/04/06 02:25:39;;;;;;;14.47;11.60;;;12.10;78.10;;;14.96;58.47;99917.00;5036933;28;20197;-58
2022/04/06 02:28:06;;;;;;;18.90;12.27;;;12.10;78.00;;;14.93;58.68;99914.81;5037797;28;20210;-58
2022/04/06 02:30:35;;;;;;;16.33;13.13;;;12.20;78.20;;;14.90;58.81;99914.19;5054220;28;20190;-57
2022/04/06 02:33:02;;;;;;;15.20;12.27;;;12.20;78.10;;;14.89;58.59;99915.25;5055165;28;20190;-56
2022/04/06 02:35:29;;;;;;;18.53;11.70;;;12.20;78.00;;;14.93;58.74;99906.88;5054975;28;20190;-59
2022/04/06 02:37:57;;;;;;;14.80;11.67;;;12.20;78.00;;;14.95;58.60;99896.84;5054234;28;20224;-56
2022/04/06 02:40:24;;;;;;;13.50;11.23;;;12.20;78.20;;;14.96;58.45;99896.59;5054682;28;20247;-57
2022/04/06 02:42:51;;;;;;;17.97;12.80;;;12.20;78.20;;;14.98;58.53;99901.69;5054754;28;20196;-56
2022/04/06 02:45:18;;;;;;;19.03;13.03;;;12.20;78.20;;;15.00;58.69;99897.00;5052994;28;20197;-57
2022/04/06 02:47:47;;;;;;;22.97;13.23;;;12.20;78.20;;;15.05;58.48;99902.44;5054482;28;20666;-56
2022/04/06 02:50:15;;;;;;;17.33;13.87;;;12.20;78.40;;;15.07;58.34;99893.19;5054786;28;20276;-57
2022/04/06 02:52:43;;;;;;;18.23;13.77;;;12.20;78.30;;;15.09;58.32;99893.00;5054549;28;20261;-58
2022/04/06 02:55:12;;;;;;;16.17;12.57;;;12.20;78.30;;;15.12;58.64;99889.91;5054655;28;20678;-56
2022/04/06 02:57:42;;;;;;;20.00;14.20;;;12.20;78.20;;;15.12;58.42;99895.19;5054179;28;20263;-58
2022/04/06 03:00:12;;;;;;;19.37;14.30;;;12.20;78.30;;;15.12;58.36;99882.72;5056443;28;20197;-58
2022/04/06 03:02:39;;;;;;;17.00;14.60;;;12.20;78.30;;;15.12;58.32;99884.59;5055065;28;20221;-58
2022/04/06 03:05:09;;;;;;;19.00;15.13;;;12.20;78.50;;;15.11;58.25;99882.97;5054879;28;20224;-58
2022/04/06 03:07:36;;;;;;;16.00;12.20;;;12.20;78.30;;;15.12;58.38;99879.28;5055084;28;20209;-58
2022/04/06 03:10:04;;;;;;;19.83;14.57;;;12.20;78.20;;;15.09;58.37;99874.44;5054540;28;20655;-58
2022/04/06 03:12:32;;;;;;;18.87;14.70;;;12.30;78.20;;;15.07;58.34;99865.91;5054412;28;20201;-58
2022/04/06 03:14:59;;;;;;;18.23;14.57;;;12.30;78.20;;;15.07;58.38;99855.31;5054448;28;20189;-56
2022/04/06 03:17:26;;;;;;;19.83;15.90;;;12.30;78.10;;;15.03;58.25;99851.47;5053853;28;20216;-56
2022/04/06 03:19:54;;;;;;;20.23;13.90;;;12.20;77.80;;;14.99;58.55;99855.59;5052166;28;20263;-55
2022/04/06 03:22:22;;;;;;;19.20;13.70;;;12.30;77.70;;;15.01;58.42;99861.47;5053492;28;20217;-58
2022/04/06 03:24:50;;;;;;;18.00;13.60;;;12.30;77.70;;;15.05;58.16;99858.16;5054056;28;20186;-57
2022/04/06 03:27:17;;;;;;;22.47;14.73;;;12.20;77.60;;;15.06;58.18;99854.50;5053023;28;20210;-58
2022/04/06 03:29:44;;;;;;;17.10;12.97;;;12.20;77.60;;;15.09;58.09;99853.22;5053866;28;20277;-58
2022/04/06 03:32:12;;;;;;;22.97;13.80;;;12.20;77.50;;;15.12;57.87;99858.09;5054759;28;20181;-56
2022/04/06 03:34:39;;;;;;;18.03;13.00;;;12.30;77.60;;;15.15;57.76;99858.44;5055064;28;20188;-56
2022/04/06 03:37:06;;;;;;;18.80;13.73;;;12.20;77.30;;;15.17;57.69;99852.88;5039335;28;20659;-56
2022/04/06 03:39:35;;;;;;;19.17;13.23;;;12.30;77.20;;;15.16;57.78;99854.75;5033839;28;20582;-56
2022/04/06 03:42:04;;;;;;;20.13;14.63;;;12.30;77.10;;;15.16;57.38;99848.66;5033964;28;20211;-55
2022/04/06 03:44:31;;;;;;;18.20;13.67;;;12.30;77.00;;;15.15;57.48;99841.72;5034294;28;20186;-60
2022/04/06 03:46:58;;;;;;;18.90;12.47;;;12.30;76.90;;;15.15;57.37;99842.53;5033300;28;20218;-58
2022/04/06 03:49:26;;;;;;;21.93;14.30;;;12.30;76.80;;;15.14;57.12;99840.13;5033655;28;20190;-58
2022/04/06 03:51:53;;;;;;;17.57;12.47;;;12.30;76.70;;;15.15;57.44;99841.72;5033981;28;20194;-55
2022/04/06 03:54:20;;;;;;;19.03;13.60;;;12.30;76.70;;;15.16;57.34;99843.34;5034868;28;20278;-56
2022/04/06 03:56:49;;;;;;;20.13;12.87;;;12.30;76.60;;;15.14;57.01;99829.50;5033097;28;20290;-58
2022/04/06 03:59:16;;;;;;;21.97;14.03;;;12.30;76.40;;;15.16;57.17;99838.03;5043604;28;20194;-57
2022/04/06 04:01:44;;;;;;;20.30;13.17;;;12.30;76.10;;;15.16;56.99;99827.44;5053824;28;20209;-58
2022/04/06 04:04:11;;;;;;;15.03;12.17;;;12.30;76.10;;;15.18;57.22;99841.28;5053697;28;20189;-58
2022/04/06 04:06:39;;;;;;;19.10;11.60;;;12.30;76.00;;;15.18;56.99;99828.00;5053275;28;20560;-57
2022/04/06 04:09:07;;;;;;;17.87;13.50;;;12.30;75.70;;;15.17;56.80;99837.81;5053320;28;20278;-58
2022/04/06 04:11:34;;;;;;;19.53;11.67;;;12.30;75.60;;;15.18;56.88;99831.47;5051529;28;20681;-58
2022/04/06 04:14:03;;;;;;;20.80;12.57;;;12.30;75.70;;;15.18;56.42;99830.66;5053346;28;20216;-59
2022/04/06 04:16:30;;;;;;;20.70;12.10;;;12.30;75.50;;;15.16;56.30;99843.34;5052854;28;20646;-58
2022/04/06 04:18:58;;;;;;;21.10;12.77;;;12.30;75.60;;;15.12;56.84;99844.84;5052935;28;20195;-56
2022/04/06 04:21:34;;;;;;;17.60;12.23;;;12.30;75.60;;;15.08;57.00;99836.50;5053201;28;20692;-59
2022/04/06 04:24:03;;;;;;;18.03;12.47;;;12.30;75.60;;;15.08;56.52;99833.03;5053338;28;20201;-58
2022/04/06 04:26:32;;;;;;;22.30;12.93;;;12.40;75.50;;;15.08;56.89;99838.34;5050920;28;20662;-56
2022/04/06 04:28:59;;;;;;;21.77;13.03;;;12.30;75.30;;;15.07;56.87;99834.09;5041029;28;20200;-57
2022/04/06 04:31:28;;;;;;;17.97;12.03;;;12.30;75.20;;;15.07;56.70;99839.41;5053123;28;20186;-58
2022/04/06 04:33:56;;;;;;;16.20;12.20;;;12.40;75.30;;;15.10;56.54;99833.63;5052768;28;20198;-59
2022/04/06 04:36:23;;;;;;;17.13;13.37;;;12.40;74.90;;;15.11;56.27;99840.56;5052525;28;20273;-58
2022/04/06 04:38:51;;;;;;;19.80;13.53;;;12.40;74.80;;;15.09;56.30;99832.03;5052927;28;20196;-57
2022/04/06 04:41:18;;;;;;;21.97;13.33;;;12.30;74.60;;;15.09;56.11;99832.84;5056478;28;20225;-60
2022/04/06 04:43:46;;;;;;;20.67;12.83;;;12.30;74.60;;;15.12;56.37;99831.59;5055683;28;20194;-59
2022/04/06 04:46:13;;;;;;;17.57;12.33;;;12.40;74.70;;;15.15;56.27;99833.75;5056551;28;20523;-55
2022/04/06 04:48:42;;;;;;;19.10;12.40;;;12.40;74.70;;;15.16;56.20;99832.75;5056829;28;20213;-59
2022/04/06 04:51:09;;;;;;;20.30;12.37;;;12.40;74.60;;;15.16;55.99;99832.75;5056799;28;20200;-58
2022/04/06 04:53:37;;;;;;;20.53;13.43;;;12.40;74.60;;;15.15;56.11;99836.41;5056766;28;20259;-58
2022/04/06 04:56:05;;;;;;;18.23;13.57;;;12.40;74.40;;;15.16;56.17;99832.75;5056419;28;20589;-56
2022/04/06 04:58:32;;;;;;;19.20;13.73;;;12.40;74.60;;;15.16;56.11;99838.03;5056171;28;20217;-58
2022/04/06 05:01:00;;;;;;;21.53;12.57;;;12.40;74.70;;;15.16;56.10;99832.75;5054915;28;20541;-58
2022/04/06 05:03:27;;;;;;;20.73;12.47;;;12.40;74.70;;;15.15;56.09;99836.41;5056534;28;20214;-59
2022/04/06 05:05:56;;;;;;;16.63;11.50;;;12.40;74.60;;;15.15;56.21;99821.31;5056444;28;20216;-58
2022/04/06 05:08:25;;;;;;;16.53;11.97;;;12.40;74.70;;;15.17;56.37;99829.03;5056608;28;20259;-60
2022/04/06 05:10:53;;;;;;;17.10;11.90;;;12.40;74.80;;;15.17;56.44;99823.72;5056044;28;20566;-58
2022/04/06 05:13:21;;;;;;;17.97;12.03;;;12.40;74.90;;;15.16;56.15;99816.84;5056306;28;20269;-58
2022/04/06 05:15:49;;;;;;;16.37;11.97;;;12.40;75.00;;;15.16;55.97;99816.84;5056136;28;20217;-59
2022/04/06 05:18:17;;;;;;;15.93;12.33;;;12.40;74.90;;;15.12;56.41;99819.13;5054356;28;20244;-58
2022/04/06 05:20:44;;;;;;;17.47;11.70;;;12.40;74.90;;;15.11;56.06;99811.41;5056618;28;20193;-58
2022/04/06 05:23:13;;;;;;;15.60;11.33;;;12.40;74.90;;;15.12;56.43;99811.16;5056347;28;20240;-58
2022/04/06 05:25:40;;;;;;;17.97;12.13;;;12.40;74.90;;;15.10;56.28;99805.28;5056349;28;20194;-56
2022/04/06 05:28:08;;;;;;;14.23;11.13;;;12.40;74.80;;;15.11;56.49;99803.44;5056988;28;20214;-59
2022/04/06 05:30:38;;;;;;;16.00;12.07;;;12.40;75.60;;;15.12;56.49;99807.72;5056469;28;20549;-58
2022/04/06 05:33:06;;;;;;;19.77;12.07;;;12.40;74.90;;;15.15;56.55;99805.41;5056145;28;20193;-58
2022/04/06 05:35:33;;;;;;;18.90;11.43;;;12.40;74.90;;;15.16;56.29;99801.75;5041851;28;20191;-58
2022/04/06 05:38:01;;;;;;;15.23;11.80;;;12.40;74.90;;;15.18;56.31;99798.84;5035793;28;20206;-57
2022/04/06 05:40:30;;;;;;;18.20;12.33;;;12.40;75.00;;;15.18;56.61;99804.16;5037059;28;20646;-57
2022/04/06 05:42:57;;;;;;;16.13;13.20;;;12.40;75.10;;;15.21;56.34;99803.72;5036482;28;20214;-57
2022/04/06 05:45:25;;;;;;;18.00;12.83;;;12.40;75.30;;;15.22;56.38;99802.66;5036280;28;20270;-57
2022/04/06 05:47:52;;;;;;;18.20;11.33;;;12.40;75.40;;;15.25;56.40;99804.84;5035635;28;20237;-58
2022/04/06 05:50:19;;;;;;;17.07;12.60;;;12.40;75.40;;;15.26;56.27;99791.38;5035622;28;20194;-58
2022/04/06 05:52:48;;;;;;;19.43;12.23;;;12.40;75.30;;;15.25;56.37;99805.69;5036929;28;20200;-57
2022/04/06 05:55:16;;;;;;;17.77;12.70;;;12.50;75.20;;;15.29;56.36;99800.72;5038115;28;20198;-58
2022/04/06 05:57:45;;;;;;;17.93;12.30;;;12.50;75.10;;;15.29;56.24;99804.19;5038115;28;20565;-58
2022/04/06 06:00:14;;;;;;;19.73;13.93;;;12.50;75.10;;;15.29;55.80;99812.13;5054321;28;20208;-58
2022/04/06 06:02:43;;;;;;;15.03;12.57;;;12.50;75.00;;;15.30;56.81;99807.63;5073056;28;20646;-58
2022/04/06 06:05:10;;;;;;;16.83;12.03;;;12.50;75.10;;;15.31;56.33;99798.63;5057551;28;20680;-59
2022/04/06 06:07:37;;;;;;;20.07;13.60;;;12.50;75.30;;;15.34;56.48;99798.19;5053617;28;20216;-57
2022/04/06 06:10:06;;;;;;;15.27;13.63;;;12.50;75.60;;;15.33;56.25;99797.38;5055204;28;20292;-58
2022/04/06 06:12:34;;;;;;;19.53;12.73;;;12.50;75.50;;;15.31;57.02;99809.25;5055633;28;20556;-58
2022/04/06 06:15:06;;;;;;;18.53;14.13;;;12.50;75.60;;;15.29;56.70;99806.00;5055511;28;20194;-55
2022/04/06 06:17:37;;;;;;;19.77;14.27;;;12.50;75.90;;;15.27;56.61;99794.81;5055146;28;20691;-58
2022/04/06 06:20:06;;;;;;;15.43;12.13;;;12.50;75.80;;;15.26;56.86;99791.38;5055640;28;20194;-59
2022/04/06 06:22:34;;;;;;;18.83;14.50;;;12.50;75.80;;;15.27;56.83;99802.78;5056244;28;20213;-58
2022/04/06 06:25:01;;;;;;;17.70;14.30;;;12.50;75.80;;;15.29;56.85;99796.22;5053373;28;20194;-59
2022/04/06 06:27:29;;;;;;;20.57;14.97;;;12.50;75.60;;;15.26;56.81;99794.00;5054179;28;20225;-58
2022/04/06 06:29:56;;;;;;;22.83;14.87;;;12.50;75.40;;;15.27;56.70;99793.00;5056955;28;20206;-59
2022/04/06 06:32:25;;;;;;;22.50;15.90;;;12.50;75.20;;;15.28;56.49;99794.63;5061217;28;20194;-60
2022/04/06 06:34:52;;;;;;;20.20;13.73;;;12.50;75.20;;;15.26;56.55;99787.94;5060065;28;20193;-57
2022/04/06 06:37:20;;;;;;;23.17;14.83;;;12.50;75.00;;;15.28;56.54;99793.81;5057732;28;20283;-60
2022/04/06 06:39:47;;;;;;;15.63;12.80;;;12.50;74.90;;;15.31;56.47;99788.03;5039512;28;20231;-59
2022/04/06 06:42:15;;;;;;;21.10;15.70;;;12.60;75.00;;;15.34;56.08;99782.28;5038548;28;20663;-58
2022/04/06 06:44:42;;;;;;;21.10;13.27;;;12.60;74.60;;;15.38;56.18;99778.94;5035126;28;20727;-58
2022/04/06 06:47:10;;;;;;;16.10;13.50;;;12.60;74.70;;;15.47;55.90;99784.75;5034976;28;20698;-58
2022/04/06 06:49:45;;;;;;;17.87;13.40;;;12.60;74.60;;;15.54;55.73;99772.19;5035026;28;20194;-56
2022/04/06 06:52:13;;;;;;;16.77;13.00;;;12.70;74.60;;;15.62;55.74;99771.81;5053427;28;20207;-59
2022/04/06 06:54:40;;;;;;;17.37;13.40;;;12.70;74.20;;;15.65;55.35;99774.03;5054495;28;20244;-59
2022/04/06 06:57:09;;;;;;;17.63;13.37;;;12.80;74.10;;;15.67;55.08;99771.13;5054163;28;20264;-58
2022/04/06 06:59:37;;;;;;;16.27;12.37;;;12.80;73.50;;;15.65;54.91;99768.72;5053689;28;20215;-58
2022/04/06 07:02:04;;;;;;;18.17;12.87;;;12.80;73.30;;;15.70;54.90;99768.84;5054085;28;20210;-59
2022/04/06 07:04:32;;;;;;;14.77;11.17;;;12.80;73.00;;;15.77;54.50;99772.19;5055776;28;20537;-58
2022/04/06 07:07:01;;;;;;;17.90;12.00;;;12.90;72.80;;;15.83;54.34;99771.22;5054901;28;20218;-57
2022/04/06 07:09:28;;;;;;;18.03;11.53;;;12.90;72.30;;;15.88;53.71;99763.38;5054885;28;20777;-60
2022/04/06 07:11:55;;;;;;;17.90;10.90;;;13.00;72.00;;;15.94;53.31;99767.78;5054873;28;20269;-59
2022/04/06 07:14:23;;;;;;;13.47;10.87;;;13.00;71.40;;;15.99;53.25;99761.78;5053185;28;20677;-57
2022/04/06 07:16:50;;;;;;;11.17;9.07;;;13.00;71.40;;;16.07;53.44;99772.00;5053639;28;20214;-59
2022/04/06 07:19:17;;;;;;;13.83;10.40;;;13.10;71.70;;;16.11;52.76;99763.38;5054447;28;20268;-58
2022/04/06 07:21:46;;;;;;;16.10;11.10;;;13.10;71.10;;;16.19;52.39;99757.69;5054762;28;20278;-57
2022/04/06 07:24:14;;;;;;;14.67;9.83;;;13.20;70.60;;;16.24;52.07;99747.16;5054325;28;20297;-59
2022/04/06 07:26:41;;;;;;;13.23;10.40;;;13.30;70.40;;;16.21;52.12;99752.94;5054066;28;20573;-59
2022/04/06 07:29:11;;;;;;;13.60;9.43;;;13.30;70.60;;;16.26;51.98;99754.88;5053735;28;20194;-56
2022/04/06 07:31:39;;;;;;;13.93;9.40;;;13.40;69.90;;;16.32;51.62;99753.13;5047070;28;20273;-58
2022/04/06 07:34:06;;;;;;;11.80;8.50;;;13.40;69.30;;;16.38;51.68;99746.91;5034747;28;20275;-58
2022/04/06 07:36:34;;;;;;;11.03;9.27;;;13.40;69.30;;;16.44;51.50;99745.94;5034475;28;20199;-57
2022/04/06 07:39:03;;;;;;;12.90;8.87;;;13.50;68.70;;;16.54;51.47;99732.88;5037033;28;20289;-59
2022/04/06 07:41:33;;;;;;;14.53;8.80;;;13.50;68.70;;;16.63;50.68;99729.59;5034176;28;20289;-60
2022/04/06 07:44:02;;;;;;;9.17;7.57;;;13.60;68.20;;;16.68;50.46;99737.69;5034060;28;20210;-57
2022/04/06 07:46:29;;;;;;;12.47;7.80;;;13.60;67.40;;;16.75;50.00;99742.84;5034014;28;20248;-59
2022/04/06 07:48:56;;;;;;;8.93;7.53;;;13.60;67.00;;;16.80;49.66;99740.25;5035510;28;20205;-58
2022/04/06 07:51:24;;;;;;;9.30;7.40;;;13.70;67.00;;;16.79;49.70;99742.13;5032374;28;20238;-58
2022/04/06 07:53:51;;;;;;;10.13;7.33;;;13.70;66.70;;;16.79;49.66;99743.97;5031859;28;20579;-59
2022/04/06 07:56:18;;;;;;;11.77;7.00;;;13.80;66.30;;;16.74;49.46;99741.22;5032888;28;20209;-60
2022/04/06 07:58:47;;;;;;;10.37;7.77;;;13.70;66.10;;;16.70;49.15;99742.75;5033328;28;20695;-57
2022/04/06 08:01:15;;;;;;;11.67;6.33;;;13.70;65.80;;;16.63;49.36;99734.09;5040063;28;20206;-59
2022/04/06 08:03:42;;;;;;;9.30;6.63;;;13.70;65.80;;;16.58;49.61;99741.97;5042271;28;20309;-62
2022/04/06 08:06:09;;;;;;;10.70;6.33;;;13.70;66.10;;;16.58;49.73;99741.97;5037853;28;20580;-61
2022/04/06 08:08:37;;;;;;;9.20;6.93;;;13.60;66.00;;;16.55;49.64;99742.44;5042326;28;20725;-58
2022/04/06 08:11:05;;;;;;;8.67;6.20;;;13.60;65.90;;;16.53;49.33;99739.22;5037938;28;20198;-61
2022/04/06 08:13:33;;;;;;;10.03;6.00;;;13.60;65.50;;;16.52;49.65;99748.25;5042914;28;20202;-60
2022/04/06 08:16:02;;;;;;;8.77;5.80;;;13.50;65.70;;;16.49;49.53;99743.38;5046916;28;20197;-60
2022/04/06 08:18:29;;;;;;;8.33;5.27;;;13.60;65.80;;;16.51;49.13;99743.94;5050511;28;20305;-60
2022/04/06 08:20:57;;;;;;;9.17;5.30;;;13.50;65.70;;;16.49;49.32;99743.38;5038703;28;20214;-63
2022/04/06 08:23:25;;;;;;;11.47;4.77;;;13.50;65.60;;;16.48;48.97;99733.78;5038913;28;20214;-60
2022/04/06 08:25:58;;;;;;;8.13;4.73;;;13.50;65.10;;;16.48;48.80;99741.75;5038688;28;20193;-61
2022/04/06 08:28:45;;;;;;;10.43;5.17;;;13.50;65.20;;;16.49;48.52;99744.19;5047360;28;20240;-60
2022/04/06 08:31:15;;;;;;;10.77;4.93;;;13.50;65.00;;;16.49;48.84;99736.22;5038132;28;20327;-59
2022/04/06 08:33:45;;;;;;;10.13;4.77;;;13.50;65.10;;;16.50;49.11;99739.66;5040964;28;20273;-61
2022/04/06 08:36:13;;;;;;;8.70;4.60;;;13.50;65.10;;;16.52;48.60;99732.31;5033590;28;20666;-61
2022/04/06 08:38:43;;;;;;;9.07;4.63;;;13.50;64.80;;;16.44;48.78;99740.63;5048688;28;20229;-62
2022/04/06 08:41:13;;;;;;;7.83;4.80;;;13.50;64.40;;;16.43;48.88;99742.47;5041863;28;20239;-59
2022/04/06 08:43:47;;;;;;;6.33;4.23;;;13.60;64.50;;;16.39;48.80;99743.19;5050169;28;20229;-62
2022/04/06 08:46:20;;;;;;;7.93;4.47;;;13.60;64.30;;;16.40;48.88;99735.00;5047618;28;20202;-59
2022/04/06 08:48:51;;;;;;;7.27;4.47;;;13.60;64.20;;;16.45;48.73;99743.03;5043980;28;20319;-60
2022/04/06 08:51:20;;;;;;;7.73;4.20;;;13.60;64.60;;;16.50;48.68;99747.63;5044186;28;20274;-59
2022/04/06 08:53:48;;;;;;;9.53;5.00;;;13.60;65.10;;;16.50;48.73;99744.97;5041972;28;20197;-58
2022/04/06 08:56:15;;;;;;;7.17;4.53;;;13.60;64.40;;;16.45;48.20;99745.69;5033343;28;20626;-59
2022/04/06 08:58:43;;;;;;;6.30;4.13;;;13.50;64.00;;;16.43;48.49;99749.63;5036024;28;20210;-59
2022/04/06 09:01:10;;;;;;;13.80;4.63;;;13.50;64.00;;;16.42;48.49;99751.50;5034493;28;20290;-59
2022/04/06 09:03:41;;;;;;;6.77;4.67;;;13.50;64.30;;;16.35;48.62;99748.19;5032917;28;20360;-59
2022/04/06 09:06:10;;;;;;;6.87;4.80;;;13.40;64.20;;;16.33;48.82;99733.53;5034009;28;20221;-60
2022/04/06 09:08:41;;;;;;;8.63;5.30;;;13.40;64.60;;;16.32;48.87;99745.16;5032872;28;20230;-60
2022/04/06 09:11:10;;;;;;;8.97;5.07;;;13.40;64.20;;;16.27;48.85;99741.38;5038544;28;20207;-59
2022/04/06 09:13:39;;;;;;;10.80;5.40;;;13.40;64.40;;;16.24;49.14;99741.84;5031465;28;20190;-60
2022/04/06 09:16:10;;;;;;;9.20;4.90;;;13.40;64.80;;;16.24;48.95;99741.84;5034889;28;20195;-61
2022/04/06 09:18:43;;;;;;;9.13;5.07;;;13.40;64.90;;;16.22;49.19;99743.94;5038436;28;20283;-58
2022/04/06 09:21:12;;;;;;;6.80;4.37;;;13.40;64.90;;;16.21;49.05;99749.50;5040969;28;20195;-59
2022/04/06 09:23:40;;;;;;;7.73;4.53;;;13.40;64.90;;;16.19;49.34;99752.38;5045139;28;20210;-60
2022/04/06 09:26:09;;;;;;;9.30;4.90;;;13.30;64.90;;;16.14;48.87;99741.63;5032077;28;20202;-61
2022/04/06 09:28:41;;;;;;;6.70;4.73;;;13.30;64.80;;;16.12;49.08;99737.59;5050495;28;20217;-57
2022/04/06 09:31:17;;;;;;;8.43;4.90;;;13.30;65.20;;;16.11;49.48;99747.44;5041581;28;20219;-58
2022/04/06 09:33:58;;;;;;;6.57;5.90;;;13.30;65.60;;;16.07;49.61;99748.94;5036108;28;20650;-60
2022/04/06 09:36:28;;;;;;;7.63;5.27;;;13.20;65.70;;;16.10;50.03;99743.16;5046670;28;20185;-61
2022/04/06 09:38:56;;;;;;;11.23;5.10;;;13.20;66.00;;;16.12;49.72;99733.09;5046824;28;20206;-58
2022/04/06 09:41:24;;;;;;;7.67;5.37;;;13.20;66.20;;;16.13;49.93;99731.25;5041092;28;20205;-58
2022/04/06 09:43:55;;;;;;;11.07;6.27;;;13.30;66.40;;;16.17;49.95;99729.75;5042909;28;20207;-59
2022/04/06 09:49:16;;;;;;;8.97;4.53;;;13.30;66.40;;;16.22;50.04;99733.31;5046941;28;20197;-59
2022/04/06 09:51:45;;;;;;;8.90;5.60;;;13.40;66.40;;;16.20;49.98;99722.13;5042894;28;20190;-61
2022/04/06 09:54:14;;;;;;;7.23;4.70;;;13.30;66.00;;;16.23;49.72;99731.47;5049534;28;20206;-63
2022/04/06 09:56:44;;;;;;;8.13;5.70;;;13.30;66.20;;;16.24;49.85;99723.25;5046363;28;20233;-61
2022/04/06 09:59:14;;;;;;;8.40;5.27;;;13.40;66.20;;;16.26;49.89;99718.50;5049094;28;20205;-60
2022/04/06 10:01:46;;;;;;;9.07;5.37;;;13.30;66.30;;;16.25;50.19;99727.53;5050512;28;20241;-60
2022/04/06 10:04:26;;;;;;;6.90;5.77;;;13.40;66.30;;;16.27;50.13;99727.28;5034332;28;20225;-61
2022/04/06 10:06:57;;;;;;;8.27;5.27;;;13.40;66.30;;;16.32;50.12;99721.28;5049108;28;20240;-59
2022/04/06 10:09:27;;;;;;;12.93;6.87;;;13.40;66.20;;;16.33;49.66;99712.28;5041638;28;20240;-59
2022/04/06 10:11:58;;;;;;;9.03;6.40;;;13.40;66.00;;;16.35;49.77;99708.34;5028128;28;20217;-59
2022/04/06 10:14:28;;;;;;;8.33;5.40;;;13.50;66.10;;;16.46;49.98;99686.22;5046124;28;20198;-60
2022/04/06 10:16:57;;;;;;;14.43;6.80;;;13.50;66.30;;;16.66;49.44;99699.09;5047326;28;20222;-60
2022/04/06 10:19:37;;;;;;;7.53;6.07;;;13.60;66.00;;;16.87;49.08;99703.72;5048036;28;20308;-61
2022/04/06 10:22:16;;;;;;;9.30;5.63;;;13.70;66.10;;;16.93;48.58;99692.09;5030759;28;20693;-57